sensor_id;sensor_type;location;lat;lon;timestamp;P1;durP1;ratioP1;P2;durP2;ratioP2
42006;SDS011;27696;42.704;23.304;2023-04-25T00:01:58;5.80;;;4.85;;
42006;SDS011;27696;42.704;23.304;2023-04-25T00:04:24;5.15;;;4.75;;
42006;SDS011;27696;42.704;23.304;2023-04-25T00:06:50;4.93;;;4.43;;
42006;SDS011;27696;42.704;23.304;2023-04-25T00:09:17;6.55;;;5.15;;
42006;SDS011;27696;42.704;23.304;2023-04-25T00:11:42;5.40;;;4.90;;
42006;SDS011;27696;42.704;23.304;2023-04-25T00:14:08;6.57;;;5.13;;
42006;SDS011;27696;42.704;23.304;2023-04-25T00:16:33;9.35;;;5.57;;
42006;SDS011;27696;42.704;23.304;2023-04-25T00:19:00;6.43;;;5.10;;
42006;SDS011;27696;42.704;23.304;2023-04-25T00:21:26;6.35;;;5.82;;
42006;SDS011;27696;42.704;23.304;2023-04-25T00:23:53;6.50;;;5.60;;
42006;SDS011;27696;42.704;23.304;2023-04-25T00:26:19;8.35;;;5.45;;
42006;SDS011;27696;42.704;23.304;2023-04-25T00:28:46;5.97;;;5.40;;
42006;SDS011;27696;42.704;23.304;2023-04-25T00:31:11;7.35;;;6.15;;
42006;SDS011;27696;42.704;23.304;2023-04-25T00:33:37;8.13;;;6.38;;
42006;SDS011;27696;42.704;23.304;2023-04-25T00:36:02;8.07;;;6.03;;
42006;SDS011;27696;42.704;23.304;2023-04-25T00:38:28;7.78;;;6.57;;
42006;SDS011;27696;42.704;23.304;2023-04-25T00:40:53;7.32;;;6.53;;
42006;SDS011;27696;42.704;23.304;2023-04-25T00:43:20;6.85;;;6.15;;
42006;SDS011;27696;42.704;23.304;2023-04-25T00:45:46;6.60;;;5.90;;
42006;SDS011;27696;42.704;23.304;2023-04-25T00:48:13;6.85;;;5.53;;
42006;SDS011;27696;42.704;23.304;2023-04-25T00:50:39;5.88;;;4.30;;
42006;SDS011;27696;42.704;23.304;2023-04-25T00:53:05;4.15;;;3.78;;
42006;SDS011;27696;42.704;23.304;2023-04-25T00:55:31;5.03;;;4.25;;
42006;SDS011;27696;42.704;23.304;2023-04-25T00:57:57;6.30;;;4.32;;
42006;SDS011;27696;42.704;23.304;2023-04-25T01:00:23;7.57;;;4.93;;
42006;SDS011;27696;42.704;23.304;2023-04-25T01:02:48;6.50;;;5.80;;
42006;SDS011;27696;42.704;23.304;2023-04-25T01:05:14;5.63;;;5.13;;
42006;SDS011;27696;42.704;23.304;2023-04-25T01:07:40;8.05;;;6.32;;
42006;SDS011;27696;42.704;23.304;2023-04-25T01:10:06;7.50;;;6.90;;
42006;SDS011;27696;42.704;23.304;2023-04-25T01:12:32;8.73;;;7.80;;
42006;SDS011;27696;42.704;23.304;2023-04-25T01:14:57;10.65;;;8.18;;
42006;SDS011;27696;42.704;23.304;2023-04-25T01:17:23;9.13;;;8.32;;
42006;SDS011;27696;42.704;23.304;2023-04-25T01:19:49;9.52;;;8.52;;
42006;SDS011;27696;42.704;23.304;2023-04-25T01:22:15;9.23;;;8.40;;
42006;SDS011;27696;42.704;23.304;2023-04-25T01:24:41;9.90;;;8.88;;
42006;SDS011;27696;42.704;23.304;2023-04-25T01:27:07;12.57;;;9.05;;
42006;SDS011;27696;42.704;23.304;2023-04-25T01:29:34;10.52;;;9.50;;
42006;SDS011;27696;42.704;23.304;2023-04-25T01:32:00;10.35;;;9.35;;
42006;SDS011;27696;42.704;23.304;2023-04-25T01:34:26;10.55;;;9.65;;
42006;SDS011;27696;42.704;23.304;2023-04-25T01:36:51;8.55;;;7.75;;
42006;SDS011;27696;42.704;23.304;2023-04-25T01:39:18;8.23;;;7.40;;
42006;SDS011;27696;42.704;23.304;2023-04-25T01:41:44;8.95;;;8.15;;
42006;SDS011;27696;42.704;23.304;2023-04-25T01:44:10;9.10;;;8.30;;
42006;SDS011;27696;42.704;23.304;2023-04-25T01:46:36;10.68;;;9.55;;
42006;SDS011;27696;42.704;23.304;2023-04-25T01:49:01;8.80;;;7.93;;
42006;SDS011;27696;42.704;23.304;2023-04-25T01:51:27;10.05;;;9.02;;
42006;SDS011;27696;42.704;23.304;2023-04-25T01:53:53;9.32;;;8.52;;
42006;SDS011;27696;42.704;23.304;2023-04-25T01:56:19;9.68;;;8.77;;
42006;SDS011;27696;42.704;23.304;2023-04-25T01:58:45;9.45;;;8.55;;
42006;SDS011;27696;42.704;23.304;2023-04-25T02:01:10;9.27;;;8.38;;
42006;SDS011;27696;42.704;23.304;2023-04-25T02:03:36;9.00;;;8.30;;
42006;SDS011;27696;42.704;23.304;2023-04-25T02:06:01;10.45;;;9.50;;
42006;SDS011;27696;42.704;23.304;2023-04-25T02:08:27;8.63;;;7.85;;
42006;SDS011;27696;42.704;23.304;2023-04-25T02:10:52;11.38;;;9.55;;
42006;SDS011;27696;42.704;23.304;2023-04-25T02:13:18;10.65;;;9.65;;
42006;SDS011;27696;42.704;23.304;2023-04-25T02:15:43;10.43;;;9.40;;
42006;SDS011;27696;42.704;23.304;2023-04-25T02:18:09;10.90;;;9.55;;
42006;SDS011;27696;42.704;23.304;2023-04-25T02:20:35;9.73;;;8.80;;
42006;SDS011;27696;42.704;23.304;2023-04-25T02:23:01;10.43;;;9.43;;
42006;SDS011;27696;42.704;23.304;2023-04-25T02:25:27;9.60;;;8.63;;
42006;SDS011;27696;42.704;23.304;2023-04-25T02:27:52;10.30;;;9.00;;
42006;SDS011;27696;42.704;23.304;2023-04-25T02:30:18;7.95;;;7.25;;
42006;SDS011;27696;42.704;23.304;2023-04-25T02:32:43;9.77;;;8.45;;
42006;SDS011;27696;42.704;23.304;2023-04-25T02:35:09;10.00;;;9.00;;
42006;SDS011;27696;42.704;23.304;2023-04-25T02:37:34;9.57;;;8.68;;
42006;SDS011;27696;42.704;23.304;2023-04-25T02:40:02;9.02;;;8.18;;
42006;SDS011;27696;42.704;23.304;2023-04-25T02:42:28;9.18;;;8.30;;
42006;SDS011;27696;42.704;23.304;2023-04-25T02:44:54;8.50;;;7.75;;
42006;SDS011;27696;42.704;23.304;2023-04-25T02:47:19;9.65;;;8.65;;
42006;SDS011;27696;42.704;23.304;2023-04-25T02:49:45;8.98;;;8.18;;
42006;SDS011;27696;42.704;23.304;2023-04-25T02:52:11;8.95;;;8.05;;
42006;SDS011;27696;42.704;23.304;2023-04-25T02:54:37;9.23;;;8.35;;
42006;SDS011;27696;42.704;23.304;2023-04-25T02:57:03;10.13;;;9.13;;
42006;SDS011;27696;42.704;23.304;2023-04-25T02:59:28;9.75;;;8.85;;
42006;SDS011;27696;42.704;23.304;2023-04-25T03:01:54;9.60;;;8.70;;
42006;SDS011;27696;42.704;23.304;2023-04-25T03:04:19;10.15;;;9.15;;
42006;SDS011;27696;42.704;23.304;2023-04-25T03:06:45;10.20;;;9.30;;
42006;SDS011;27696;42.704;23.304;2023-04-25T03:09:11;9.65;;;8.65;;
42006;SDS011;27696;42.704;23.304;2023-04-25T03:11:38;11.25;;;10.13;;
42006;SDS011;27696;42.704;23.304;2023-04-25T03:14:03;10.15;;;9.23;;
42006;SDS011;27696;42.704;23.304;2023-04-25T03:16:29;11.20;;;9.57;;
42006;SDS011;27696;42.704;23.304;2023-04-25T03:18:55;12.18;;;9.90;;
42006;SDS011;27696;42.704;23.304;2023-04-25T03:21:21;9.48;;;8.13;;
42006;SDS011;27696;42.704;23.304;2023-04-25T03:23:46;10.80;;;9.20;;
42006;SDS011;27696;42.704;23.304;2023-04-25T03:26:12;10.15;;;9.15;;
42006;SDS011;27696;42.704;23.304;2023-04-25T03:28:38;8.88;;;8.07;;
42006;SDS011;27696;42.704;23.304;2023-04-25T03:31:04;9.65;;;8.65;;
42006;SDS011;27696;42.704;23.304;2023-04-25T03:33:30;8.40;;;7.57;;
42006;SDS011;27696;42.704;23.304;2023-04-25T03:35:55;9.60;;;7.50;;
42006;SDS011;27696;42.704;23.304;2023-04-25T03:38:20;7.95;;;7.25;;
42006;SDS011;27696;42.704;23.304;2023-04-25T03:40:46;8.25;;;7.45;;
42006;SDS011;27696;42.704;23.304;2023-04-25T03:43:11;10.90;;;8.38;;
42006;SDS011;27696;42.704;23.304;2023-04-25T03:45:37;8.77;;;7.90;;
42006;SDS011;27696;42.704;23.304;2023-04-25T03:48:03;9.05;;;8.13;;
42006;SDS011;27696;42.704;23.304;2023-04-25T03:50:28;9.00;;;8.10;;
42006;SDS011;27696;42.704;23.304;2023-04-25T03:52:54;8.43;;;7.63;;
42006;SDS011;27696;42.704;23.304;2023-04-25T03:55:20;8.68;;;7.88;;
42006;SDS011;27696;42.704;23.304;2023-04-25T03:57:45;8.73;;;7.93;;
42006;SDS011;27696;42.704;23.304;2023-04-25T04:00:11;9.10;;;8.18;;
42006;SDS011;27696;42.704;23.304;2023-04-25T04:02:37;11.88;;;10.73;;
42006;SDS011;27696;42.704;23.304;2023-04-25T04:05:03;9.80;;;8.80;;
42006;SDS011;27696;42.704;23.304;2023-04-25T04:07:29;10.48;;;8.93;;
42006;SDS011;27696;42.704;23.304;2023-04-25T04:09:57;10.57;;;9.57;;
42006;SDS011;27696;42.704;23.304;2023-04-25T04:12:22;9.95;;;8.95;;
42006;SDS011;27696;42.704;23.304;2023-04-25T04:14:47;10.07;;;9.13;;
42006;SDS011;27696;42.704;23.304;2023-04-25T04:17:13;11.23;;;9.63;;
42006;SDS011;27696;42.704;23.304;2023-04-25T04:19:38;11.75;;;9.95;;
42006;SDS011;27696;42.704;23.304;2023-04-25T04:22:04;10.82;;;9.82;;
42006;SDS011;27696;42.704;23.304;2023-04-25T04:24:29;11.80;;;10.70;;
42006;SDS011;27696;42.704;23.304;2023-04-25T04:26:54;11.40;;;10.30;;
42006;SDS011;27696;42.704;23.304;2023-04-25T04:29:20;12.07;;;10.88;;
42006;SDS011;27696;42.704;23.304;2023-04-25T04:31:49;13.02;;;10.60;;
42006;SDS011;27696;42.704;23.304;2023-04-25T04:34:15;12.10;;;10.73;;
42006;SDS011;27696;42.704;23.304;2023-04-25T04:36:42;11.30;;;10.23;;
42006;SDS011;27696;42.704;23.304;2023-04-25T04:39:10;10.93;;;9.90;;
42006;SDS011;27696;42.704;23.304;2023-04-25T04:41:35;10.80;;;9.75;;
42006;SDS011;27696;42.704;23.304;2023-04-25T04:44:01;10.57;;;9.63;;
42006;SDS011;27696;42.704;23.304;2023-04-25T04:46:26;11.40;;;10.20;;
42006;SDS011;27696;42.704;23.304;2023-04-25T04:48:53;10.68;;;9.57;;
42006;SDS011;27696;42.704;23.304;2023-04-25T04:51:18;11.45;;;10.32;;
42006;SDS011;27696;42.704;23.304;2023-04-25T04:53:44;11.75;;;10.57;;
42006;SDS011;27696;42.704;23.304;2023-04-25T04:56:09;12.32;;;10.65;;
42006;SDS011;27696;42.704;23.304;2023-04-25T04:58:35;12.25;;;10.57;;
42006;SDS011;27696;42.704;23.304;2023-04-25T05:01:01;12.70;;;11.50;;
42006;SDS011;27696;42.704;23.304;2023-04-25T05:03:27;13.27;;;12.07;;
42006;SDS011;27696;42.704;23.304;2023-04-25T05:05:53;14.52;;;13.02;;
42006;SDS011;27696;42.704;23.304;2023-04-25T05:08:18;14.25;;;12.88;;
42006;SDS011;27696;42.704;23.304;2023-04-25T05:10:44;14.60;;;13.10;;
42006;SDS011;27696;42.704;23.304;2023-04-25T05:13:09;15.30;;;13.77;;
42006;SDS011;27696;42.704;23.304;2023-04-25T05:15:35;14.43;;;12.93;;
42006;SDS011;27696;42.704;23.304;2023-04-25T05:18:00;17.02;;;13.43;;
42006;SDS011;27696;42.704;23.304;2023-04-25T05:20:26;15.52;;;13.70;;
42006;SDS011;27696;42.704;23.304;2023-04-25T05:22:51;16.23;;;13.23;;
42006;SDS011;27696;42.704;23.304;2023-04-25T05:25:17;13.07;;;11.88;;
42006;SDS011;27696;42.704;23.304;2023-04-25T05:27:42;16.52;;;12.25;;
42006;SDS011;27696;42.704;23.304;2023-04-25T05:30:08;12.88;;;11.57;;
42006;SDS011;27696;42.704;23.304;2023-04-25T05:32:34;13.13;;;11.80;;
42006;SDS011;27696;42.704;23.304;2023-04-25T05:35:00;13.40;;;12.00;;
42006;SDS011;27696;42.704;23.304;2023-04-25T05:37:26;13.23;;;11.82;;
42006;SDS011;27696;42.704;23.304;2023-04-25T05:39:51;14.23;;;11.60;;
42006;SDS011;27696;42.704;23.304;2023-04-25T05:42:17;14.07;;;11.25;;
42006;SDS011;27696;42.704;23.304;2023-04-25T05:44:42;12.88;;;11.07;;
42006;SDS011;27696;42.704;23.304;2023-04-25T05:47:08;12.15;;;10.95;;
42006;SDS011;27696;42.704;23.304;2023-04-25T05:49:34;13.50;;;10.48;;
42006;SDS011;27696;42.704;23.304;2023-04-25T05:51:59;12.77;;;11.48;;
42006;SDS011;27696;42.704;23.304;2023-04-25T05:54:25;12.50;;;10.52;;
42006;SDS011;27696;42.704;23.304;2023-04-25T05:56:50;14.93;;;12.95;;
42006;SDS011;27696;42.704;23.304;2023-04-25T05:59:15;15.35;;;13.48;;
42006;SDS011;27696;42.704;23.304;2023-04-25T06:01:41;13.02;;;11.65;;
42006;SDS011;27696;42.704;23.304;2023-04-25T06:04:06;13.77;;;12.23;;
42006;SDS011;27696;42.704;23.304;2023-04-25T06:06:32;14.57;;;13.07;;
42006;SDS011;27696;42.704;23.304;2023-04-25T06:08:57;16.48;;;14.80;;
42006;SDS011;27696;42.704;23.304;2023-04-25T06:11:23;15.27;;;13.25;;
42006;SDS011;27696;42.704;23.304;2023-04-25T06:13:48;16.60;;;14.07;;
42006;SDS011;27696;42.704;23.304;2023-04-25T06:16:14;16.38;;;13.93;;
42006;SDS011;27696;42.704;23.304;2023-04-25T06:18:39;14.20;;;12.77;;
42006;SDS011;27696;42.704;23.304;2023-04-25T06:21:05;13.00;;;11.80;;
42006;SDS011;27696;42.704;23.304;2023-04-25T06:23:30;14.25;;;11.57;;
42006;SDS011;27696;42.704;23.304;2023-04-25T06:25:56;15.60;;;12.68;;
42006;SDS011;27696;42.704;23.304;2023-04-25T06:28:21;13.55;;;12.18;;
42006;SDS011;27696;42.704;23.304;2023-04-25T06:30:47;18.42;;;15.30;;
42006;SDS011;27696;42.704;23.304;2023-04-25T06:33:12;18.48;;;15.90;;
42006;SDS011;27696;42.704;23.304;2023-04-25T06:35:37;18.88;;;15.25;;
42006;SDS011;27696;42.704;23.304;2023-04-25T06:38:03;17.98;;;16.10;;
42006;SDS011;27696;42.704;23.304;2023-04-25T06:40:28;18.75;;;15.95;;
42006;SDS011;27696;42.704;23.304;2023-04-25T06:42:54;17.88;;;14.90;;
42006;SDS011;27696;42.704;23.304;2023-04-25T06:45:19;15.10;;;13.00;;
42006;SDS011;27696;42.704;23.304;2023-04-25T06:47:45;15.60;;;10.70;;
42006;SDS011;27696;42.704;23.304;2023-04-25T06:50:10;13.35;;;11.45;;
42006;SDS011;27696;42.704;23.304;2023-04-25T06:52:36;15.85;;;10.68;;
42006;SDS011;27696;42.704;23.304;2023-04-25T06:55:01;12.82;;;9.02;;
42006;SDS011;27696;42.704;23.304;2023-04-25T06:57:27;15.05;;;10.07;;
42006;SDS011;27696;42.704;23.304;2023-04-25T06:59:53;11.48;;;9.85;;
42006;SDS011;27696;42.704;23.304;2023-04-25T07:02:18;12.80;;;9.55;;
42006;SDS011;27696;42.704;23.304;2023-04-25T07:04:44;14.18;;;9.77;;
42006;SDS011;27696;42.704;23.304;2023-04-25T07:07:11;11.43;;;9.02;;
42006;SDS011;27696;42.704;23.304;2023-04-25T07:09:36;13.18;;;9.90;;
42006;SDS011;27696;42.704;23.304;2023-04-25T07:12:01;18.55;;;9.88;;
42006;SDS011;27696;42.704;23.304;2023-04-25T07:14:30;12.88;;;10.23;;
42006;SDS011;27696;42.704;23.304;2023-04-25T07:16:56;16.00;;;9.52;;
42006;SDS011;27696;42.704;23.304;2023-04-25T07:19:22;13.80;;;9.90;;
42006;SDS011;27696;42.704;23.304;2023-04-25T07:21:51;15.35;;;10.23;;
42006;SDS011;27696;42.704;23.304;2023-04-25T07:24:16;16.17;;;10.20;;
42006;SDS011;27696;42.704;23.304;2023-04-25T07:26:42;16.55;;;11.15;;
42006;SDS011;27696;42.704;23.304;2023-04-25T07:29:08;19.35;;;10.27;;
42006;SDS011;27696;42.704;23.304;2023-04-25T07:31:33;20.45;;;9.88;;
42006;SDS011;27696;42.704;23.304;2023-04-25T07:34:00;12.50;;;9.32;;
42006;SDS011;27696;42.704;23.304;2023-04-25T07:36:25;12.50;;;10.15;;
42006;SDS011;27696;42.704;23.304;2023-04-25T07:38:52;16.70;;;12.38;;
42006;SDS011;27696;42.704;23.304;2023-04-25T07:41:17;14.25;;;11.40;;
42006;SDS011;27696;42.704;23.304;2023-04-25T07:43:42;16.38;;;10.60;;
42006;SDS011;27696;42.704;23.304;2023-04-25T07:46:08;17.65;;;11.00;;
42006;SDS011;27696;42.704;23.304;2023-04-25T07:48:33;12.82;;;10.75;;
42006;SDS011;27696;42.704;23.304;2023-04-25T07:50:59;22.08;;;10.60;;
42006;SDS011;27696;42.704;23.304;2023-04-25T07:53:24;19.60;;;10.32;;
42006;SDS011;27696;42.704;23.304;2023-04-25T07:55:50;23.27;;;11.88;;
42006;SDS011;27696;42.704;23.304;2023-04-25T07:58:15;16.20;;;9.63;;
42006;SDS011;27696;42.704;23.304;2023-04-25T08:00:46;26.75;;;11.82;;
42006;SDS011;27696;42.704;23.304;2023-04-25T08:03:11;13.13;;;9.90;;
42006;SDS011;27696;42.704;23.304;2023-04-25T08:05:37;15.43;;;9.60;;
42006;SDS011;27696;42.704;23.304;2023-04-25T08:08:02;19.90;;;10.40;;
42006;SDS011;27696;42.704;23.304;2023-04-25T08:10:28;16.15;;;10.10;;
42006;SDS011;27696;42.704;23.304;2023-04-25T08:12:53;15.43;;;8.60;;
42006;SDS011;27696;42.704;23.304;2023-04-25T08:15:19;14.90;;;10.02;;
42006;SDS011;27696;42.704;23.304;2023-04-25T08:17:44;13.93;;;8.65;;
42006;SDS011;27696;42.704;23.304;2023-04-25T08:20:10;17.30;;;8.63;;
42006;SDS011;27696;42.704;23.304;2023-04-25T08:22:36;18.67;;;11.00;;
42006;SDS011;27696;42.704;23.304;2023-04-25T08:25:02;17.52;;;10.75;;
42006;SDS011;27696;42.704;23.304;2023-04-25T08:27:28;12.52;;;9.18;;
42006;SDS011;27696;42.704;23.304;2023-04-25T08:29:53;9.30;;;7.93;;
42006;SDS011;27696;42.704;23.304;2023-04-25T08:32:18;11.98;;;8.65;;
42006;SDS011;27696;42.704;23.304;2023-04-25T08:34:44;13.65;;;9.27;;
42006;SDS011;27696;42.704;23.304;2023-04-25T08:37:10;11.02;;;8.60;;
42006;SDS011;27696;42.704;23.304;2023-04-25T08:39:36;17.65;;;9.85;;
42006;SDS011;27696;42.704;23.304;2023-04-25T08:42:05;15.32;;;10.80;;
42006;SDS011;27696;42.704;23.304;2023-04-25T08:44:35;13.77;;;9.35;;
42006;SDS011;27696;42.704;23.304;2023-04-25T08:47:04;11.85;;;7.80;;
42006;SDS011;27696;42.704;23.304;2023-04-25T08:49:31;10.88;;;5.85;;
42006;SDS011;27696;42.704;23.304;2023-04-25T08:51:58;10.75;;;5.40;;
42006;SDS011;27696;42.704;23.304;2023-04-25T08:54:25;9.65;;;4.47;;
42006;SDS011;27696;42.704;23.304;2023-04-25T08:56:53;5.25;;;3.50;;
42006;SDS011;27696;42.704;23.304;2023-04-25T08:59:19;5.32;;;4.30;;
42006;SDS011;27696;42.704;23.304;2023-04-25T09:01:46;6.15;;;4.70;;
42006;SDS011;27696;42.704;23.304;2023-04-25T09:04:12;5.95;;;4.47;;
42006;SDS011;27696;42.704;23.304;2023-04-25T09:06:37;6.88;;;5.00;;
42006;SDS011;27696;42.704;23.304;2023-04-25T09:09:06;10.52;;;8.63;;
42006;SDS011;27696;42.704;23.304;2023-04-25T09:11:33;8.63;;;6.80;;
42006;SDS011;27696;42.704;23.304;2023-04-25T09:14:15;12.75;;;10.82;;
42006;SDS011;27696;42.704;23.304;2023-04-25T09:16:57;9.00;;;8.10;;
42006;SDS011;27696;42.704;23.304;2023-04-25T09:19:31;13.07;;;10.55;;
42006;SDS011;27696;42.704;23.304;2023-04-25T09:21:59;9.02;;;8.00;;
42006;SDS011;27696;42.704;23.304;2023-04-25T09:24:36;8.38;;;7.40;;
42006;SDS011;27696;42.704;23.304;2023-04-25T09:27:10;9.77;;;8.00;;
42006;SDS011;27696;42.704;23.304;2023-04-25T09:29:38;8.23;;;6.55;;
42006;SDS011;27696;42.704;23.304;2023-04-25T09:32:11;10.65;;;6.63;;
42006;SDS011;27696;42.704;23.304;2023-04-25T09:34:53;9.95;;;8.30;;
42006;SDS011;27696;42.704;23.304;2023-04-25T09:37:20;12.30;;;8.75;;
42006;SDS011;27696;42.704;23.304;2023-04-25T09:39:51;11.45;;;8.52;;
42006;SDS011;27696;42.704;23.304;2023-04-25T09:42:20;10.52;;;8.20;;
42006;SDS011;27696;42.704;23.304;2023-04-25T09:44:47;10.95;;;7.95;;
42006;SDS011;27696;42.704;23.304;2023-04-25T09:47:13;10.40;;;7.50;;
42006;SDS011;27696;42.704;23.304;2023-04-25T09:49:42;7.25;;;3.90;;
42006;SDS011;27696;42.704;23.304;2023-04-25T09:52:08;7.25;;;4.38;;
42006;SDS011;27696;42.704;23.304;2023-04-25T09:54:34;4.15;;;3.75;;
42006;SDS011;27696;42.704;23.304;2023-04-25T09:57:03;5.85;;;4.43;;
42006;SDS011;27696;42.704;23.304;2023-04-25T10:03:04;5.20;;;3.40;;
42006;SDS011;27696;42.704;23.304;2023-04-25T10:05:31;3.45;;;2.97;;
42006;SDS011;27696;42.704;23.304;2023-04-25T10:08:02;5.18;;;2.70;;
42006;SDS011;27696;42.704;23.304;2023-04-25T10:10:31;3.60;;;3.30;;
42006;SDS011;27696;42.704;23.304;2023-04-25T10:13:01;21.05;;;18.40;;
42006;SDS011;27696;42.704;23.304;2023-04-25T10:15:28;7.10;;;3.60;;
42006;SDS011;27696;42.704;23.304;2023-04-25T10:17:54;3.63;;;2.47;;
42006;SDS011;27696;42.704;23.304;2023-04-25T10:20:20;6.18;;;4.10;;
42006;SDS011;27696;42.704;23.304;2023-04-25T10:22:47;3.25;;;1.50;;
42006;SDS011;27696;42.704;23.304;2023-04-25T10:25:13;2.38;;;1.30;;
42006;SDS011;27696;42.704;23.304;2023-04-25T10:27:39;3.03;;;1.25;;
42006;SDS011;27696;42.704;23.304;2023-04-25T10:30:07;4.97;;;1.30;;
42006;SDS011;27696;42.704;23.304;2023-04-25T10:32:36;3.53;;;1.80;;
42006;SDS011;27696;42.704;23.304;2023-04-25T10:35:17;3.35;;;1.40;;
42006;SDS011;27696;42.704;23.304;2023-04-25T10:38:11;4.80;;;1.55;;
42006;SDS011;27696;42.704;23.304;2023-04-25T10:40:39;6.53;;;1.30;;
42006;SDS011;27696;42.704;23.304;2023-04-25T10:46:03;4.38;;;1.65;;
42006;SDS011;27696;42.704;23.304;2023-04-25T10:49:01;3.95;;;1.55;;
42006;SDS011;27696;42.704;23.304;2023-04-25T10:51:28;3.08;;;1.20;;
42006;SDS011;27696;42.704;23.304;2023-04-25T10:54:02;3.30;;;1.73;;
42006;SDS011;27696;42.704;23.304;2023-04-25T10:56:33;7.68;;;1.70;;
42006;SDS011;27696;42.704;23.304;2023-04-25T10:59:05;3.08;;;1.30;;
42006;SDS011;27696;42.704;23.304;2023-04-25T11:01:36;3.40;;;1.23;;
42006;SDS011;27696;42.704;23.304;2023-04-25T11:04:03;5.68;;;1.55;;
42006;SDS011;27696;42.704;23.304;2023-04-25T11:09:02;3.53;;;0.90;;
42006;SDS011;27696;42.704;23.304;2023-04-25T11:11:36;2.92;;;0.65;;
42006;SDS011;27696;42.704;23.304;2023-04-25T11:14:01;1.52;;;0.52;;
42006;SDS011;27696;42.704;23.304;2023-04-25T11:16:27;1.52;;;1.00;;
42006;SDS011;27696;42.704;23.304;2023-04-25T11:18:52;3.88;;;1.02;;
42006;SDS011;27696;42.704;23.304;2023-04-25T11:21:18;2.67;;;1.30;;
42006;SDS011;27696;42.704;23.304;2023-04-25T11:23:46;6.60;;;1.60;;
42006;SDS011;27696;42.704;23.304;2023-04-25T11:26:12;2.22;;;1.38;;
42006;SDS011;27696;42.704;23.304;2023-04-25T11:28:39;1.85;;;1.10;;
42006;SDS011;27696;42.704;23.304;2023-04-25T11:31:04;1.52;;;0.80;;
42006;SDS011;27696;42.704;23.304;2023-04-25T11:33:30;2.22;;;1.20;;
42006;SDS011;27696;42.704;23.304;2023-04-25T11:35:55;2.53;;;0.98;;
42006;SDS011;27696;42.704;23.304;2023-04-25T11:38:24;2.00;;;1.10;;
42006;SDS011;27696;42.704;23.304;2023-04-25T11:40:51;2.38;;;1.10;;
42006;SDS011;27696;42.704;23.304;2023-04-25T11:43:17;1.75;;;1.10;;
42006;SDS011;27696;42.704;23.304;2023-04-25T11:45:45;1.67;;;0.75;;
42006;SDS011;27696;42.704;23.304;2023-04-25T11:48:12;1.70;;;1.20;;
42006;SDS011;27696;42.704;23.304;2023-04-25T11:50:38;1.40;;;0.70;;
42006;SDS011;27696;42.704;23.304;2023-04-25T11:53:04;1.48;;;1.00;;
42006;SDS011;27696;42.704;23.304;2023-04-25T11:55:31;4.13;;;1.10;;
42006;SDS011;27696;42.704;23.304;2023-04-25T11:57:56;2.13;;;1.00;;
42006;SDS011;27696;42.704;23.304;2023-04-25T12:00:25;1.48;;;1.13;;
42006;SDS011;27696;42.704;23.304;2023-04-25T12:02:51;2.17;;;1.58;;
42006;SDS011;27696;42.704;23.304;2023-04-25T12:05:18;0.88;;;0.88;;
42006;SDS011;27696;42.704;23.304;2023-04-25T12:07:45;1.20;;;0.70;;
42006;SDS011;27696;42.704;23.304;2023-04-25T12:10:12;2.40;;;0.50;;
42006;SDS011;27696;42.704;23.304;2023-04-25T12:12:40;3.10;;;0.93;;
42006;SDS011;27696;42.704;23.304;2023-04-25T12:15:11;1.70;;;0.73;;
42006;SDS011;27696;42.704;23.304;2023-04-25T12:17:38;1.70;;;0.80;;
42006;SDS011;27696;42.704;23.304;2023-04-25T12:20:11;3.13;;;0.93;;
42006;SDS011;27696;42.704;23.304;2023-04-25T12:22:40;1.88;;;1.00;;
42006;SDS011;27696;42.704;23.304;2023-04-25T12:25:09;3.03;;;1.15;;
42006;SDS011;27696;42.704;23.304;2023-04-25T12:27:35;2.47;;;1.17;;
42006;SDS011;27696;42.704;23.304;2023-04-25T12:30:01;1.92;;;1.00;;
42006;SDS011;27696;42.704;23.304;2023-04-25T12:32:26;11.82;;;1.75;;
42006;SDS011;27696;42.704;23.304;2023-04-25T12:34:52;25.50;;;2.17;;
42006;SDS011;27696;42.704;23.304;2023-04-25T12:37:17;10.13;;;2.13;;
42006;SDS011;27696;42.704;23.304;2023-04-25T12:39:43;8.98;;;2.20;;
42006;SDS011;27696;42.704;23.304;2023-04-25T12:42:08;8.07;;;1.75;;
42006;SDS011;27696;42.704;23.304;2023-04-25T12:44:36;4.10;;;1.65;;
42006;SDS011;27696;42.704;23.304;2023-04-25T12:47:02;2.80;;;1.60;;
42006;SDS011;27696;42.704;23.304;2023-04-25T12:49:28;3.83;;;1.90;;
42006;SDS011;27696;42.704;23.304;2023-04-25T12:51:53;4.97;;;1.77;;
42006;SDS011;27696;42.704;23.304;2023-04-25T12:54:19;4.30;;;1.73;;
42006;SDS011;27696;42.704;23.304;2023-04-25T12:56:44;3.25;;;2.00;;
42006;SDS011;27696;42.704;23.304;2023-04-25T12:59:11;2.75;;;1.70;;
42006;SDS011;27696;42.704;23.304;2023-04-25T13:01:36;4.85;;;2.17;;
42006;SDS011;27696;42.704;23.304;2023-04-25T13:04:02;5.43;;;2.05;;
42006;SDS011;27696;42.704;23.304;2023-04-25T13:06:28;6.55;;;2.08;;
42006;SDS011;27696;42.704;23.304;2023-04-25T13:08:55;5.03;;;1.95;;
42006;SDS011;27696;42.704;23.304;2023-04-25T13:11:20;2.75;;;2.33;;
42006;SDS011;27696;42.704;23.304;2023-04-25T13:13:46;2.88;;;1.60;;
42006;SDS011;27696;42.704;23.304;2023-04-25T13:16:11;5.03;;;2.58;;
42006;SDS011;27696;42.704;23.304;2023-04-25T13:18:39;7.38;;;4.72;;
42006;SDS011;27696;42.704;23.304;2023-04-25T13:21:05;4.75;;;3.35;;
42006;SDS011;27696;42.704;23.304;2023-04-25T13:23:30;5.20;;;3.15;;
42006;SDS011;27696;42.704;23.304;2023-04-25T13:25:56;6.60;;;3.28;;
42006;SDS011;27696;42.704;23.304;2023-04-25T13:28:26;4.10;;;3.13;;
42006;SDS011;27696;42.704;23.304;2023-04-25T13:30:52;4.20;;;2.60;;
42006;SDS011;27696;42.704;23.304;2023-04-25T13:33:19;3.00;;;2.33;;
42006;SDS011;27696;42.704;23.304;2023-04-25T13:35:45;5.03;;;3.13;;
42006;SDS011;27696;42.704;23.304;2023-04-25T13:38:12;6.60;;;2.72;;
42006;SDS011;27696;42.704;23.304;2023-04-25T13:40:38;5.65;;;3.47;;
42006;SDS011;27696;42.704;23.304;2023-04-25T13:43:03;7.13;;;3.25;;
42006;SDS011;27696;42.704;23.304;2023-04-25T13:45:29;6.53;;;3.83;;
42006;SDS011;27696;42.704;23.304;2023-04-25T13:47:54;9.65;;;4.85;;
42006;SDS011;27696;42.704;23.304;2023-04-25T13:50:20;7.78;;;4.05;;
42006;SDS011;27696;42.704;23.304;2023-04-25T13:52:46;9.52;;;3.72;;
42006;SDS011;27696;42.704;23.304;2023-04-25T13:55:11;6.97;;;3.33;;
42006;SDS011;27696;42.704;23.304;2023-04-25T13:57:37;10.38;;;5.10;;
42006;SDS011;27696;42.704;23.304;2023-04-25T14:00:03;5.90;;;3.42;;
42006;SDS011;27696;42.704;23.304;2023-04-25T14:02:33;6.25;;;3.58;;
42006;SDS011;27696;42.704;23.304;2023-04-25T14:05:02;6.93;;;3.60;;
42006;SDS011;27696;42.704;23.304;2023-04-25T14:07:28;6.88;;;3.70;;
42006;SDS011;27696;42.704;23.304;2023-04-25T14:09:54;5.50;;;2.90;;
42006;SDS011;27696;42.704;23.304;2023-04-25T14:12:22;4.20;;;2.70;;
42006;SDS011;27696;42.704;23.304;2023-04-25T14:14:48;4.55;;;2.80;;
42006;SDS011;27696;42.704;23.304;2023-04-25T14:17:13;7.68;;;2.70;;
42006;SDS011;27696;42.704;23.304;2023-04-25T14:19:38;1.98;;;1.67;;
42006;SDS011;27696;42.704;23.304;2023-04-25T14:22:08;3.28;;;2.85;;
42006;SDS011;27696;42.704;23.304;2023-04-25T14:24:33;2.50;;;1.92;;
42006;SDS011;27696;42.704;23.304;2023-04-25T14:26:59;2.97;;;2.42;;
42006;SDS011;27696;42.704;23.304;2023-04-25T14:29:25;1.48;;;1.27;;
42006;SDS011;27696;42.704;23.304;2023-04-25T14:31:51;2.30;;;1.58;;